Time;durP1;ratioP1;P1;durP2;ratioP2;P2;SDS_P1;SDS_P2;PMS_P1;PMS_P2;Temp;Humidity;BMP_temperature;BMP_pressure;BME280_temperature;BME280_humidity;BME280_pressure;Samples;Min_cycle;Max_cycle;Signal;HPM_P1;HPM_P2
2023/08/01 00:01:52;;;;;;;7.63;2.95;;;16.40;99.90;;;;;;4758766;30;20048;-93
2023/08/01 00:04:17;;;;;;;7.15;2.88;;;16.70;99.90;;;;;;4742940;30;20621;-93
2023/08/01 00:06:43;;;;;;;8.52;3.03;;;16.70;99.90;;;;;;4745065;30;20071;-92
2023/08/01 00:09:09;;;;;;;8.45;3.00;;;16.60;99.90;;;;;;4754795;30;20048;-92
2023/08/01 00:11:35;;;;;;;10.38;2.80;;;16.70;99.90;;;;;;4755780;30;20082;-92
2023/08/01 00:14:01;;;;;;;7.32;2.83;;;16.40;99.90;;;;;;4754503;30;20492;-92
2023/08/01 00:16:27;;;;;;;6.90;3.28;;;16.50;99.90;;;;;;4759584;30;20120;-93
2023/08/01 00:18:53;;;;;;;10.98;2.67;;;16.50;99.90;;;;;;4738232;30;20051;-92
2023/08/01 00:21:18;;;;;;;7.80;2.90;;;16.70;99.90;;;;;;4757113;30;20047;-93
2023/08/01 00:23:44;;;;;;;7.82;2.88;;;16.60;99.90;;;;;;4729839;30;20067;-92
2023/08/01 00:26:10;;;;;;;9.48;2.47;;;16.40;99.90;;;;;;4758306;30;20142;-92
2023/08/01 00:28:35;;;;;;;4.93;2.42;;;16.60;99.90;;;;;;4748872;30;20073;-92
2023/08/01 00:31:11;;;;;;;7.18;3.63;;;16.60;99.90;;;;;;4739334;30;20047;-92
2023/08/01 00:33:37;;;;;;;6.05;2.88;;;16.40;99.90;;;;;;4756174;30;20130;-92
2023/08/01 00:36:03;;;;;;;4.18;2.45;;;16.60;99.90;;;;;;4758203;30;20043;-92
2023/08/01 00:38:29;;;;;;;7.03;2.42;;;16.50;99.90;;;;;;4751699;30;20046;-92
2023/08/01 00:40:55;;;;;;;6.97;2.75;;;16.40;99.90;;;;;;4756840;30;20500;-92
2023/08/01 00:43:21;;;;;;;16.50;2.97;;;16.50;99.90;;;;;;4755768;30;20058;-92
2023/08/01 00:45:47;;;;;;;5.35;2.08;;;16.30;99.90;;;;;;4756741;30;20101;-92
2023/08/01 00:48:12;;;;;;;5.18;2.45;;;16.50;99.90;;;;;;4757117;30;20047;-92
2023/08/01 00:50:39;;;;;;;6.32;3.00;;;16.50;99.90;;;;;;4741117;30;20051;-92
2023/08/01 00:53:05;;;;;;;6.00;2.58;;;16.50;99.90;;;;;;4770500;30;20058;-92
2023/08/01 00:55:34;;;;;;;5.53;2.27;;;16.20;99.90;;;;;;4770404;30;20055;-91
2023/08/01 00:58:00;;;;;;;6.03;2.60;;;16.40;99.90;;;;;;4762953;30;20047;-92
2023/08/01 01:00:26;;;;;;;5.53;2.47;;;16.30;99.90;;;;;;4744150;30;20054;-92
2023/08/01 01:02:51;;;;;;;5.10;2.08;;;16.40;99.90;;;;;;4767488;30;20552;-92
2023/08/01 01:05:18;;;;;;;6.10;2.33;;;16.30;99.90;;;;;;4758586;30;20138;-92
2023/08/01 01:07:44;;;;;;;6.55;2.08;;;16.40;99.90;;;;;;4751057;30;20595;-92
2023/08/01 01:10:10;;;;;;;5.30;2.30;;;16.10;99.90;;;;;;4757934;30;20058;-93
2023/08/01 01:12:35;;;;;;;5.85;2.47;;;16.40;99.90;;;;;;4749486;30;20047;-91
2023/08/01 01:15:01;;;;;;;8.90;2.50;;;16.30;99.90;;;;;;4756321;30;20499;-93
2023/08/01 01:17:27;;;;;;;5.32;2.15;;;16.10;99.90;;;;;;4767128;30;20425;-92
2023/08/01 01:19:54;;;;;;;7.38;2.50;;;16.10;99.90;;;;;;4742476;30;20043;-92
2023/08/01 01:22:20;;;;;;;5.88;2.83;;;16.00;99.90;;;;;;4756750;30;20463;-93
2023/08/01 01:24:47;;;;;;;3.85;2.28;;;16.10;99.90;;;;;;4752043;30;20050;-92
2023/08/01 01:27:13;;;;;;;;;;;16.10;99.90;;;;;;4749097;30;20039;-92
2023/08/01 01:29:40;;;;;;;7.10;2.33;;;15.90;99.90;;;;;;4770708;30;19928;-92
2023/08/01 01:32:07;;;;;;;3.97;2.05;;;16.10;99.90;;;;;;4770383;30;20043;-92
2023/08/01 01:34:32;;;;;;;7.75;2.55;;;15.70;99.90;;;;;;4772124;30;20415;-92
2023/08/01 01:36:58;;;;;;;5.43;2.30;;;16.00;99.90;;;;;;4754335;30;20048;-92
2023/08/01 01:39:24;;;;;;;5.55;2.00;;;15.90;99.90;;;;;;4737586;30;20047;-92
2023/08/01 01:41:49;;;;;;;6.22;2.33;;;15.70;99.90;;;;;;4757544;30;20079;-92
2023/08/01 01:44:15;;;;;;;7.13;2.50;;;15.70;99.90;;;;;;4753830;30;20054;-92
2023/08/01 01:46:41;;;;;;;3.88;2.15;;;15.70;99.90;;;;;;4757667;30;20127;-92
2023/08/01 01:49:06;;;;;;;7.78;2.60;;;15.80;99.90;;;;;;4754812;30;20059;-92
2023/08/01 01:51:32;;;;;;;4.82;2.55;;;15.70;99.90;;;;;;4765600;30;20047;-92
2023/08/01 01:53:58;;;;;;;5.22;2.20;;;15.60;99.90;;;;;;4743240;29;20057;-92
2023/08/01 01:56:23;;;;;;;6.32;2.20;;;15.50;99.90;;;;;;4759564;29;20122;-92
2023/08/01 01:58:49;;;;;;;5.18;2.17;;;15.70;99.90;;;;;;4743421;29;20046;-92
2023/08/01 02:01:15;;;;;;;6.30;2.30;;;15.70;99.90;;;;;;4759465;29;20519;-92
2023/08/01 02:03:40;;;;;;;4.10;2.10;;;15.70;99.90;;;;;;4757507;30;20515;-92
2023/08/01 02:06:06;;;;;;;5.55;2.25;;;15.40;99.90;;;;;;4756945;29;20050;-91
2023/08/01 02:08:33;;;;;;;5.85;2.10;;;15.70;99.90;;;;;;4759820;29;20046;-91
2023/08/01 02:10:58;;;;;;;6.00;2.10;;;15.60;99.90;;;;;;4760358;29;20058;-92
2023/08/01 02:13:28;;;;;;;6.00;2.63;;;15.40;99.90;;;;;;4747425;30;20477;-91
2023/08/01 02:15:54;;;;;;;6.32;2.10;;;15.50;99.90;;;;;;4757121;30;20043;-92
2023/08/01 02:18:20;;;;;;;5.23;2.40;;;15.20;99.90;;;;;;4752767;29;20555;-91
2023/08/01 02:20:46;;;;;;;4.90;2.47;;;15.30;99.90;;;;;;4757019;30;20048;-92
2023/08/01 02:23:12;;;;;;;7.72;2.40;;;15.50;99.90;;;;;;4755563;30;20100;-92
2023/08/01 02:25:41;;;;;;;6.25;2.30;;;15.40;99.90;;;;;;4750547;30;20412;-92
2023/08/01 02:28:07;;;;;;;3.38;1.98;;;15.30;99.90;;;;;;4762637;29;20042;-91
2023/08/01 02:30:34;;;;;;;3.70;2.30;;;15.40;99.90;;;;;;4775014;29;20072;-92
2023/08/01 02:32:59;;;;;;;4.38;2.17;;;15.50;99.90;;;;;;4756229;30;20046;-92
2023/08/01 02:35:25;;;;;;;4.15;2.33;;;15.50;99.90;;;;;;4752387;29;20039;-91
2023/08/01 02:37:51;;;;;;;5.70;1.92;;;15.20;99.90;;;;;;4757389;29;20054;-91
2023/08/01 02:40:16;;;;;;;3.58;2.40;;;15.50;99.90;;;;;;4750624;30;20050;-91
2023/08/01 02:42:42;;;;;;;4.22;2.10;;;15.20;99.90;;;;;;4757783;29;20126;-90
2023/08/01 02:45:08;;;;;;;6.28;2.53;;;15.30;99.90;;;;;;4745180;29;20047;-91
2023/08/01 02:47:34;;;;;;;3.28;2.10;;;15.40;99.90;;;;;;4773602;29;20053;-92
2023/08/01 02:50:00;;;;;;;3.55;2.03;;;15.40;99.90;;;;;;4741212;30;20074;-92
2023/08/01 02:52:26;;;;;;;5.68;2.05;;;15.30;99.90;;;;;;4759280;29;20408;-92
2023/08/01 02:54:51;;;;;;;5.00;2.22;;;15.00;99.90;;;;;;4774297;29;20051;-92
2023/08/01 02:57:17;;;;;;;4.10;2.00;;;15.10;99.90;;;;;;4745156;29;20093;-92
2023/08/01 02:59:43;;;;;;;4.22;2.20;;;15.20;99.90;;;;;;4745606;29;20038;-91
2023/08/01 03:02:08;;;;;;;3.53;1.95;;;15.20;99.90;;;;;;4759949;29;20034;-91
2023/08/01 03:04:35;;;;;;;6.25;2.30;;;15.20;99.90;;;;;;4757000;30;20569;-92
2023/08/01 03:07:01;;;;;;;4.67;2.13;;;15.10;99.90;;;;;;4742483;29;20204;-92
2023/08/01 03:09:26;;;;;;;5.68;2.53;;;14.90;99.90;;;;;;4744948;29;20555;-92
2023/08/01 03:11:52;;;;;;;4.63;2.20;;;15.20;99.90;;;;;;4759708;29;20047;-92
2023/08/01 03:14:18;;;;;;;3.90;1.92;;;15.20;99.90;;;;;;4751387;30;20097;-92
2023/08/01 03:16:44;;;;;;;3.90;2.60;;;15.00;99.90;;;;;;4772954;29;20505;-92
2023/08/01 03:19:09;;;;;;;3.05;1.95;;;14.90;99.90;;;;;;4754148;29;20038;-92
2023/08/01 03:21:35;;;;;;;4.53;2.05;;;14.90;99.90;;;;;;4752003;29;20496;-92
2023/08/01 03:24:02;;;;;;;5.15;2.30;;;15.20;99.90;;;;;;4777347;29;20047;-92
2023/08/01 03:26:28;;;;;;;5.07;1.90;;;15.20;99.90;;;;;;4763325;29;20137;-92
2023/08/01 03:28:55;;;;;;;3.42;2.10;;;15.10;99.90;;;;;;4746461;30;20570;-92
2023/08/01 03:31:24;;;;;;;6.22;2.38;;;15.10;99.90;;;;;;4762897;29;20072;-91
2023/08/01 03:33:50;;;;;;;6.05;2.63;;;15.30;99.90;;;;;;4757641;30;20047;-92
2023/08/01 03:36:15;;;;;;;6.18;2.58;;;15.10;99.90;;;;;;4758111;30;20058;-93
2023/08/01 03:38:41;;;;;;;7.40;2.65;;;15.20;99.90;;;;;;4748204;29;20055;-93
2023/08/01 03:41:07;;;;;;;5.70;2.50;;;15.30;99.90;;;;;;4757809;29;20043;-91
2023/08/01 03:43:33;;;;;;;6.38;2.80;;;15.50;99.90;;;;;;4755160;30;20108;-92
2023/08/01 03:45:58;;;;;;;5.85;2.90;;;15.20;99.90;;;;;;4763898;29;20042;-93
2023/08/01 03:48:24;;;;;;;4.95;3.05;;;15.30;99.90;;;;;;4760599;30;20571;-93
2023/08/01 03:50:50;;;;;;;4.93;2.95;;;15.30;99.90;;;;;;4776540;29;20512;-93
2023/08/01 03:53:16;;;;;;;8.27;3.13;;;15.50;99.90;;;;;;4761308;29;20710;-92
2023/08/01 03:55:43;;;;;;;7.05;3.33;;;15.60;99.90;;;;;;4762421;29;20043;-94
2023/08/01 03:58:09;;;;;;;8.93;3.40;;;15.30;99.90;;;;;;4778133;29;20054;-93
2023/08/01 04:00:34;;;;;;;5.97;3.10;;;15.60;99.90;;;;;;4759658;30;20043;-93
2023/08/01 04:03:01;;;;;;;5.18;2.80;;;15.50;99.90;;;;;;4739843;29;20046;-92
2023/08/01 04:05:28;;;;;;;5.17;2.90;;;15.60;99.90;;;;;;4776851;29;20046;-93
2023/08/01 04:07:54;;;;;;;5.80;3.03;;;15.60;99.90;;;;;;4759315;30;21100;-93
2023/08/01 04:10:23;;;;;;;4.45;2.63;;;15.30;99.90;;;;;;4760147;29;20043;-93
2023/08/01 04:12:49;;;;;;;4.85;2.30;;;15.20;99.90;;;;;;4777713;29;20055;-93
2023/08/01 04:15:15;;;;;;;3.92;2.10;;;15.30;99.90;;;;;;4775882;29;20043;-92
2023/08/01 04:17:41;;;;;;;4.65;2.03;;;15.30;99.90;;;;;;4758445;30;20115;-93
2023/08/01 04:20:07;;;;;;;3.95;2.42;;;15.30;99.90;;;;;;4776998;29;20035;-92
2023/08/01 04:22:33;;;;;;;5.47;2.30;;;15.30;99.90;;;;;;4758771;29;20049;-93
2023/08/01 04:25:00;;;;;;;4.45;1.85;;;15.30;99.90;;;;;;4761619;29;20038;-94
2023/08/01 04:27:26;;;;;;;6.32;1.95;;;15.50;99.90;;;;;;4775826;29;20054;-93
2023/08/01 04:29:54;;;;;;;5.38;1.50;;;15.50;99.90;;;;;;4759656;29;20048;-93
2023/08/01 04:32:19;;;;;;;;;;;15.50;99.90;;;;;;4759755;30;20051;-92
2023/08/01 04:34:45;;;;;;;4.00;1.80;;;15.50;99.90;;;;;;4776585;29;19928;-93
2023/08/01 04:37:11;;;;;;;5.93;1.80;;;15.50;99.90;;;;;;4762001;29;20138;-93
2023/08/01 04:39:37;;;;;;;6.13;1.48;;;15.20;99.90;;;;;;4746014;29;20522;-93
2023/08/01 04:42:03;;;;;;;5.72;1.58;;;15.20;99.90;;;;;;4744992;29;20047;-92
2023/08/01 04:44:29;;;;;;;4.35;1.83;;;15.40;99.90;;;;;;4774842;29;20049;-92
2023/08/01 04:46:55;;;;;;;6.40;1.37;;;15.20;99.90;;;;;;4751824;30;20043;-92
2023/08/01 04:49:21;;;;;;;3.60;1.20;;;15.50;99.90;;;;;;4757705;30;20487;-92
2023/08/01 04:51:49;;;;;;;4.05;1.85;;;15.40;99.90;;;;;;4747704;29;20579;-95
2023/08/01 04:54:15;;;;;;;4.28;1.30;;;15.30;99.90;;;;;;4776147;29;20130;-95
2023/08/01 04:56:41;;;;;;;6.15;1.25;;;15.40;99.90;;;;;;4776213;29;20142;-95
2023/08/01 04:59:07;;;;;;;5.47;1.60;;;15.50;99.90;;;;;;4751295;29;20130;-94
2023/08/01 05:01:33;;;;;;;5.32;1.67;;;15.50;99.90;;;;;;4762002;29;20043;-95
2023/08/01 05:04:01;;;;;;;5.28;1.60;;;15.50;99.90;;;;;;4747115;29;20123;-95
2023/08/01 05:07:05;;;;;;;5.03;1.25;;;15.60;99.90;;;;;;4756689;29;20043;-95
2023/08/01 05:09:32;;;;;;;3.28;1.40;;;16.00;99.90;;;;;;4762784;30;20485;-96
2023/08/01 05:11:58;;;;;;;2.75;1.30;;;16.20;99.90;;;;;;4773176;29;20111;-95
2023/08/01 05:14:24;;;;;;;4.00;1.58;;;16.40;99.90;;;;;;4762790;30;20051;-96
2023/08/01 05:16:50;;;;;;;5.07;1.20;;;16.60;99.90;;;;;;4777440;29;20055;-96
2023/08/01 05:19:16;;;;;;;1.30;0.93;;;16.40;99.90;;;;;;4735093;29;20100;-96
2023/08/01 05:21:41;;;;;;;5.30;1.58;;;16.60;99.90;;;;;;4769341;30;20055;-95
2023/08/01 05:24:07;;;;;;;5.25;1.70;;;17.10;99.90;;;;;;4786876;29;20046;-95
2023/08/01 05:26:33;;;;;;;4.97;1.83;;;17.70;99.90;;;;;;4770603;29;20133;-93
2023/08/01 05:28:59;;;;;;;4.35;1.33;;;17.60;99.90;;;;;;4760090;29;20519;-92
2023/08/01 05:31:27;;;;;;;3.10;0.90;;;17.70;99.90;;;;;;4746528;29;20180;-93
2023/08/01 05:33:53;;;;;;;4.50;1.63;;;17.50;99.90;;;;;;4758785;29;20126;-92
2023/08/01 05:36:21;;;;;;;4.78;1.35;;;17.50;99.90;;;;;;4774225;29;20049;-93
2023/08/01 05:38:47;;;;;;;3.75;1.30;;;17.40;99.90;;;;;;4741269;29;20043;-86
2023/08/01 05:41:13;;;;;;;5.68;1.48;;;17.20;99.90;;;;;;4754812;29;20045;-89
2023/08/01 05:43:38;;;;;;;5.72;1.40;;;17.10;99.90;;;;;;4742987;29;20108;-89
2023/08/01 05:46:04;;;;;;;3.13;1.10;;;16.90;99.90;;;;;;4741702;30;20043;-92
2023/08/01 05:48:30;;;;;;;4.57;1.20;;;16.70;99.90;;;;;;4760501;29;20102;-92
2023/08/01 05:50:55;;;;;;;4.78;1.40;;;16.70;99.90;;;;;;4757351;29;20056;-92
2023/08/01 05:53:22;;;;;;;2.03;0.93;;;16.50;99.90;;;;;;4732030;30;20097;-93
2023/08/01 05:55:47;;;;;;;2.20;0.85;;;16.50;99.90;;;;;;4737917;30;20104;-91
2023/08/01 05:58:13;;;;;;;5.50;1.42;;;16.30;99.90;;;;;;4759070;29;20051;-91
2023/08/01 06:00:39;;;;;;;2.88;1.13;;;16.20;99.90;;;;;;4753488;29;20659;-91
2023/08/01 06:03:05;;;;;;;3.05;1.25;;;16.20;99.90;;;;;;4772445;29;20066;-91
2023/08/01 06:05:30;;;;;;;2.47;0.90;;;16.40;99.90;;;;;;4741730;30;20107;-91
2023/08/01 06:07:56;;;;;;;2.53;1.17;;;16.40;99.90;;;;;;4732836;29;20088;-91
2023/08/01 06:10:22;;;;;;;5.72;1.63;;;16.50;99.90;;;;;;4741455;30;20058;-91
2023/08/01 06:12:48;;;;;;;1.92;0.98;;;16.50;99.90;;;;;;4772802;29;20050;-92
2023/08/01 06:15:14;;;;;;;4.40;1.33;;;16.60;99.90;;;;;;4741990;30;20192;-92
2023/08/01 06:17:40;;;;;;;2.00;1.05;;;16.70;99.90;;;;;;4772001;29;20061;-91
2023/08/01 06:20:10;;;;;;;3.15;1.00;;;16.60;99.90;;;;;;4760256;29;20046;-91
2023/08/01 06:22:35;;;;;;;1.70;1.17;;;16.70;99.90;;;;;;4743493;29;20059;-92
2023/08/01 06:25:01;;;;;;;1.45;1.10;;;16.50;99.90;;;;;;4743605;29;20506;-91
2023/08/01 06:27:27;;;;;;;2.22;1.25;;;16.50;99.90;;;;;;4735786;29;20081;-92
2023/08/01 06:29:52;;;;;;;1.23;0.88;;;16.40;99.90;;;;;;4740828;30;20043;-91
2023/08/01 06:32:18;;;;;;;2.78;1.10;;;16.20;99.90;;;;;;4742258;29;20074;-91
2023/08/01 06:34:44;;;;;;;3.60;1.25;;;16.20;99.90;;;;;;4745705;29;20055;-91
2023/08/01 06:40:57;;;;;;;3.92;1.13;;;16.30;99.90;;;;;;4696289;30;20045;-91
2023/08/01 06:43:24;;;;;;;2.95;1.00;;;16.40;99.90;;;;;;4771878;29;20050;-91
2023/08/01 06:45:50;;;;;;;2.85;1.05;;;16.30;99.90;;;;;;4757942;29;20563;-92
2023/08/01 06:48:16;;;;;;;2.15;1.10;;;16.30;99.90;;;;;;4750308;30;20507;-91
2023/08/01 06:50:42;;;;;;;4.10;1.13;;;16.40;99.90;;;;;;4743061;29;20051;-91
2023/08/01 06:53:08;;;;;;;3.10;1.10;;;16.10;99.90;;;;;;4751265;29;20523;-91
2023/08/01 06:55:34;;;;;;;2.77;1.00;;;16.40;99.90;;;;;;4759172;29;20130;-91
2023/08/01 06:58:00;;;;;;;3.15;0.93;;;16.10;99.90;;;;;;4742401;30;20043;-91
2023/08/01 07:00:25;;;;;;;2.90;1.00;;;16.20;99.90;;;;;;4762893;29;20049;-93
2023/08/01 07:02:51;;;;;;;2.40;0.70;;;16.30;99.90;;;;;;4760352;29;20057;-91
2023/08/01 07:05:17;;;;;;;2.88;0.80;;;16.20;99.90;;;;;;4745384;29;20046;-91
2023/08/01 07:07:42;;;;;;;1.52;0.93;;;16.40;99.90;;;;;;4760339;29;20514;-92
2023/08/01 07:10:08;;;;;;;3.03;0.90;;;16.30;99.90;;;;;;4759069;29;20058;-92
2023/08/01 07:12:34;;;;;;;1.90;0.80;;;16.50;99.90;;;;;;4756798;30;20104;-92
2023/08/01 07:15:03;;;;;;;2.53;0.90;;;16.40;99.90;;;;;;4743041;29;20042;-92
2023/08/01 07:17:29;;;;;;;1.58;0.73;;;16.50;99.90;;;;;;4774006;29;20103;-92
2023/08/01 07:19:55;;;;;;;2.55;0.90;;;16.70;99.90;;;;;;4772768;29;20038;-91
2023/08/01 07:22:21;;;;;;;2.45;0.77;;;16.80;99.90;;;;;;4774375;29;20051;-92
2023/08/01 07:24:46;;;;;;;3.67;0.93;;;16.60;99.90;;;;;;4773846;29;20467;-92
2023/08/01 07:27:12;;;;;;;2.40;0.80;;;16.90;99.90;;;;;;4774816;29;20129;-91
2023/08/01 07:29:38;;;;;;;1.88;0.80;;;17.10;99.90;;;;;;4756861;30;20661;-92
2023/08/01 07:32:04;;;;;;;5.13;0.73;;;17.70;99.90;;;;;;4743464;30;20516;-90
2023/08/01 07:34:30;;;;;;;1.83;0.70;;;18.10;99.90;;;;;;4758861;29;20057;-91
2023/08/01 07:36:58;;;;;;;4.25;1.15;;;18.50;99.90;;;;;;4756771;29;20043;-91
2023/08/01 07:39:24;;;;;;;2.42;0.50;;;18.90;99.90;;;;;;4771734;29;20049;-91
2023/08/01 07:41:50;;;;;;;3.45;0.70;;;19.10;99.90;;;;;;4773075;29;20487;-89
2023/08/01 07:44:15;;;;;;;2.10;0.55;;;18.80;99.90;;;;;;4759354;29;20051;-91
2023/08/01 07:46:41;;;;;;;2.60;0.65;;;18.70;99.90;;;;;;4750550;30;20048;-91
2023/08/01 07:49:07;;;;;;;3.17;0.60;;;18.60;99.90;;;;;;4756801;29;20187;-91
2023/08/01 07:51:33;;;;;;;3.50;1.02;;;18.70;99.90;;;;;;4759887;29;20127;-90
2023/08/01 07:53:59;;;;;;;2.10;0.60;;;18.50;99.90;;;;;;4744743;29;20055;-90
2023/08/01 07:56:25;;;;;;;1.85;0.50;;;18.20;99.90;;;;;;4759902;29;20051;-90
2023/08/01 07:58:51;;;;;;;1.42;0.50;;;18.00;99.90;;;;;;4761097;29;20064;-91
2023/08/01 08:01:16;;;;;;;5.07;0.60;;;17.70;99.90;;;;;;4759985;29;20043;-91
2023/08/01 08:03:42;;;;;;;2.28;0.52;;;17.70;99.90;;;;;;4758447;29;20130;-91
2023/08/01 08:06:08;;;;;;;2.35;0.60;;;17.80;99.90;;;;;;4747460;29;20089;-91
2023/08/01 08:08:34;;;;;;;2.85;0.80;;;18.10;99.90;;;;;;4760689;29;20047;-91
2023/08/01 08:11:01;;;;;;;1.23;0.43;;;18.40;99.90;;;;;;4759334;30;20047;-89
2023/08/01 08:13:27;;;;;;;2.95;0.68;;;18.70;99.90;;;;;;4752426;29;20507;-92
2023/08/01 08:15:55;;;;;;;3.38;0.70;;;18.90;99.90;;;;;;4744229;30;20054;-91
2023/08/01 08:18:20;;;;;;;2.13;0.50;;;19.10;99.90;;;;;;4761564;29;20054;-89
2023/08/01 08:20:46;;;;;;;1.95;0.70;;;19.30;99.90;;;;;;4762695;29;20038;-90
2023/08/01 08:23:15;;;;;;;2.58;0.50;;;19.40;99.90;;;;;;4747475;29;20123;-91
2023/08/01 08:25:42;;;;;;;1.73;0.57;;;19.40;99.90;;;;;;4773794;30;20158;-92
2023/08/01 08:28:08;;;;;;;1.98;1.50;;;19.50;99.90;;;;;;4742826;29;20042;-92
2023/08/01 08:30:35;;;;;;;2.55;0.47;;;19.60;99.90;;;;;;4756464;29;20051;-92
2023/08/01 08:33:04;;;;;;;5.88;0.73;;;19.50;99.90;;;;;;4776718;29;20056;-91
2023/08/01 08:35:30;;;;;;;1.02;0.40;;;19.40;99.90;;;;;;4775414;29;20047;-93
2023/08/01 08:37:58;;;;;;;1.95;0.60;;;19.20;99.90;;;;;;4777005;29;20293;-92
2023/08/01 08:40:24;;;;;;;1.60;0.57;;;19.10;99.90;;;;;;4767968;29;20130;-91
2023/08/01 08:42:52;;;;;;;2.25;0.40;;;18.60;99.90;;;;;;4741480;29;20440;-92
2023/08/01 08:45:20;;;;;;;2.25;0.60;;;18.20;99.90;;;;;;4779130;29;20057;-92
2023/08/01 08:47:55;;;;;;;1.90;0.60;;;18.00;99.90;;;;;;4755586;29;20057;-93
2023/08/01 08:50:22;;;;;;;1.48;0.50;;;17.80;99.90;;;;;;4776277;29;20051;-92
2023/08/01 08:52:48;;;;;;;2.92;0.50;;;17.60;99.90;;;;;;4758810;29;20074;-91
2023/08/01 08:55:14;;;;;;;1.98;0.43;;;17.40;99.90;;;;;;4741412;29;20055;-93
2023/08/01 08:57:42;;;;;;;0.93;0.40;;;17.30;99.90;;;;;;4756479;30;20043;-92
2023/08/01 09:00:08;;;;;;;3.13;0.70;;;17.20;99.90;;;;;;4750288;29;20050;-92
2023/08/01 09:02:34;;;;;;;2.50;0.47;;;16.90;99.90;;;;;;4740371;29;20039;-91
2023/08/01 09:04:59;;;;;;;1.08;0.40;;;17.10;99.90;;;;;;4742686;29;20122;-93
2023/08/01 09:07:30;;;;;;;1.38;0.60;;;17.20;99.90;;;;;;4755545;30;20043;-92
2023/08/01 09:09:56;;;;;;;1.75;0.65;;;17.30;99.90;;;;;;4772898;29;20629;-92
2023/08/01 09:12:21;;;;;;;3.22;1.38;;;17.80;99.90;;;;;;4761051;29;20050;-92
2023/08/01 09:14:50;;;;;;;2.55;0.77;;;18.60;99.90;;;;;;4760658;29;20039;-93
2023/08/01 09:17:18;;;;;;;2.15;0.80;;;19.40;99.90;;;;;;4769268;24;20063;-86
2023/08/01 09:19:44;;;;;;;2.72;0.75;;;19.90;99.90;;;;;;4739975;30;20402;-87
2023/08/01 09:22:14;;;;;;;3.20;0.82;;;20.20;99.90;;;;;;4748520;30;20770;-91
2023/08/01 09:24:50;;;;;;;3.00;0.68;;;20.40;99.90;;;;;;4726623;30;20073;-87
2023/08/01 09:27:15;;;;;;;3.25;0.60;;;20.20;99.90;;;;;;4754298;30;20044;-89
2023/08/01 09:29:41;;;;;;;2.30;0.43;;;19.90;99.90;;;;;;4719275;30;20052;-88
2023/08/01 09:32:14;;;;;;;2.58;0.65;;;19.50;99.90;;;;;;4749919;30;20490;-91
2023/08/01 09:34:43;;;;;;;2.58;0.80;;;19.10;99.90;;;;;;4752359;30;20077;-89
2023/08/01 09:37:09;;;;;;;3.63;0.70;;;18.50;99.90;;;;;;4733026;30;20044;-90
2023/08/01 09:39:35;;;;;;;1.60;0.50;;;18.10;99.90;;;;;;4754636;30;20043;-90
2023/08/01 09:42:02;;;;;;;2.50;0.47;;;17.70;99.90;;;;;;4741508;30;20054;-88
2023/08/01 09:44:29;;;;;;;4.07;0.50;;;17.20;99.90;;;;;;4755989;30;20039;-89
2023/08/01 09:47:06;;;;;;;1.83;0.28;;;16.80;99.90;;;;;;4739117;30;20182;-91
2023/08/01 09:49:33;;;;;;;3.42;0.60;;;16.70;99.90;;;;;;4721622;30;20051;-90
2023/08/01 09:52:01;;;;;;;2.92;0.80;;;16.40;99.90;;;;;;4756210;30;20047;-89
2023/08/01 09:54:27;;;;;;;2.08;0.60;;;16.40;99.90;;;;;;4755220;30;20050;-90
2023/08/01 09:56:55;;;;;;;3.65;0.80;;;16.40;99.90;;;;;;4736670;30;20057;-89
2023/08/01 09:59:25;;;;;;;1.52;0.50;;;16.50;99.90;;;;;;4741663;30;20106;-89
2023/08/01 10:01:53;;;;;;;1.60;0.60;;;16.40;99.90;;;;;;4755179;30;20039;-89
2023/08/01 10:04:33;;;;;;;3.55;0.63;;;16.70;99.90;;;;;;4742044;30;20043;-89
2023/08/01 10:07:02;;;;;;;3.25;0.70;;;17.20;99.90;;;;;;4756065;30;20039;-88
2023/08/01 10:09:31;;;;;;;4.10;0.60;;;17.60;99.90;;;;;;4753915;30;20134;-89
2023/08/01 10:11:58;;;;;;;2.38;0.57;;;17.90;99.90;;;;;;4749435;30;20047;-88
2023/08/01 10:14:25;;;;;;;1.80;0.70;;;18.40;99.90;;;;;;4755483;30;20078;-88
2023/08/01 10:16:52;;;;;;;4.07;0.60;;;18.60;99.90;;;;;;4756450;30;20718;-89
2023/08/01 10:19:19;;;;;;;2.55;0.60;;;18.70;99.90;;;;;;4745350;30;20531;-88
2023/08/01 10:21:46;;;;;;;;;;;18.70;99.90;;;;;;4756283;30;20043;-88
2023/08/01 10:24:16;;;;;;;2.57;0.60;;;18.40;99.90;;;;;;4754238;30;19979;-89
2023/08/01 10:26:46;;;;;;;3.00;0.85;;;18.40;99.90;;;;;;4755849;29;20079;-89
2023/08/01 10:29:12;;;;;;;4.28;0.65;;;18.20;99.90;;;;;;4742142;30;20052;-89
2023/08/01 10:31:38;;;;;;;6.53;1.13;;;18.00;99.90;;;;;;4726570;30;20130;-90
2023/08/01 10:34:14;;;;;;;2.80;0.60;;;17.70;99.90;;;;;;4755972;30;20142;-89
2023/08/01 10:36:39;;;;;;;2.38;0.70;;;17.40;99.90;;;;;;4741026;30;20543;-89
2023/08/01 10:39:05;;;;;;;2.88;0.70;;;17.10;99.90;;;;;;4739484;30;20066;-89
2023/08/01 10:41:33;;;;;;;3.63;0.80;;;17.00;99.90;;;;;;4755304;30;20051;-88
2023/08/01 10:44:13;;;;;;;2.83;0.80;;;16.90;99.90;;;;;;4755543;30;20047;-89
2023/08/01 10:47:00;;;;;;;2.60;0.82;;;16.80;99.90;;;;;;4770534;30;20051;-90
2023/08/01 10:49:37;;;;;;;3.30;0.90;;;16.80;99.90;;;;;;4758484;30;20130;-90
2023/08/01 10:52:24;;;;;;;3.85;0.80;;;16.80;99.90;;;;;;4746232;30;20123;-88
2023/08/01 10:55:00;;;;;;;2.70;1.00;;;17.10;99.90;;;;;;4740293;30;20048;-89
2023/08/01 10:57:31;;;;;;;2.08;0.73;;;17.30;99.90;;;;;;4768209;30;20051;-88
2023/08/01 11:00:00;;;;;;;3.40;0.63;;;17.50;99.90;;;;;;4744435;30;20074;-89
2023/08/01 11:02:54;;;;;;;3.05;0.82;;;17.60;99.90;;;;;;4734934;30;20108;-88
2023/08/01 11:05:23;;;;;;;3.03;0.73;;;17.80;99.90;;;;;;4745118;30;20058;-89
2023/08/01 11:07:56;;;;;;;2.47;0.63;;;17.90;99.90;;;;;;4724579;30;20047;-88
2023/08/01 11:10:22;;;;;;;5.47;0.93;;;18.10;99.90;;;;;;4754312;30;20047;-90
2023/08/01 11:12:48;;;;;;;3.38;0.90;;;18.20;99.90;;;;;;4737815;30;20058;-86
2023/08/01 11:15:14;;;;;;;3.08;0.93;;;18.40;99.90;;;;;;4739054;30;20051;-89
2023/08/01 11:17:51;;;;;;;3.60;0.98;;;18.50;99.90;;;;;;4750894;30;20056;-89
2023/08/01 11:20:20;;;;;;;4.30;0.60;;;18.60;99.90;;;;;;4755675;30;20090;-89
2023/08/01 11:22:57;;;;;;;2.78;0.50;;;18.70;99.90;;;;;;4752821;30;20140;-87
2023/08/01 11:25:45;;;;;;;2.38;0.55;;;18.70;99.90;;;;;;4745970;30;20088;-88
2023/08/01 11:28:16;;;;;;;3.88;0.57;;;18.80;99.90;;;;;;4756247;30;20138;-88
2023/08/01 11:30:43;;;;;;;2.47;0.68;;;18.80;99.90;;;;;;4755129;30;20097;-89
2023/08/01 11:33:29;;;;;;;2.20;0.57;;;18.70;99.90;;;;;;4752518;30;20047;-89
2023/08/01 11:35:59;;;;;;;2.95;1.00;;;18.60;99.90;;;;;;4747964;30;20055;-89
2023/08/01 11:38:30;;;;;;;1.88;0.55;;;18.60;99.90;;;;;;4736087;29;20055;-87
2023/08/01 11:40:57;;;;;;;2.17;0.63;;;18.80;99.90;;;;;;4756394;30;20051;-91
2023/08/01 11:43:23;;;;;;;3.75;0.50;;;18.80;99.90;;;;;;4755375;30;20036;-89
2023/08/01 11:45:54;;;;;;;4.35;0.75;;;18.80;99.90;;;;;;4757073;30;20047;-88
2023/08/01 11:48:32;;;;;;;4.50;0.50;;;18.70;99.90;;;;;;4757664;30;20039;-88
2023/08/01 11:50:59;;;;;;;1.75;0.47;;;18.80;99.90;;;;;;4748812;30;20039;-88
2023/08/01 11:53:28;;;;;;;2.17;0.50;;;18.80;99.90;;;;;;4755172;30;20077;-91
2023/08/01 11:55:56;;;;;;;2.90;0.68;;;18.80;99.90;;;;;;4756885;30;20093;-89
2023/08/01 11:58:41;;;;;;;4.75;0.90;;;18.80;99.90;;;;;;4744654;30;20043;-91
2023/08/01 12:01:17;;;;;;;2.60;0.60;;;18.70;99.90;;;;;;4758112;30;20047;-91
2023/08/01 12:04:04;;;;;;;1.05;0.47;;;18.80;99.90;;;;;;4748578;30;20055;-90
2023/08/01 12:06:32;;;;;;;2.55;0.60;;;18.80;99.90;;;;;;4758497;30;20054;-91
2023/08/01 12:09:15;;;;;;;2.00;0.50;;;18.90;99.90;;;;;;4756684;30;20057;-91
2023/08/01 12:12:11;;;;;;;1.55;0.52;;;18.90;99.90;;;;;;4758188;30;20051;-92
2023/08/01 12:14:48;;;;;;;2.20;0.32;;;18.80;99.90;;;;;;4742698;30;20058;-88
2023/08/01 12:20:29;;;;;;;2.70;0.55;;;18.60;99.90;;;;;;4714384;30;20484;-92
2023/08/01 12:23:12;;;;;;;1.38;0.40;;;18.70;99.90;;;;;;4735829;30;20044;-91
2023/08/01 12:25:53;;;;;;;3.50;0.60;;;18.70;99.90;;;;;;4726355;30;20083;-91
2023/08/01 12:28:47;;;;;;;4.60;0.82;;;18.70;99.90;;;;;;4740207;30;20628;-91
2023/08/01 12:31:32;;;;;;;3.25;0.70;;;18.70;99.90;;;;;;4740178;30;20058;-92
2023/08/01 12:33:58;;;;;;;3.50;0.80;;;18.60;99.90;;;;;;4739758;30;20043;-93
2023/08/01 12:36:24;;;;;;;3.05;1.00;;;18.60;99.90;;;;;;4737822;30;20503;-96
2023/08/01 12:38:50;;;;;;;3.70;0.68;;;18.70;99.90;;;;;;4744873;30;20079;-95
2023/08/01 12:41:16;;;;;;;4.30;0.75;;;18.80;99.90;;;;;;4738938;30;20051;-94
2023/08/01 12:43:42;;;;;;;1.98;0.50;;;18.70;99.90;;;;;;4737514;30;20055;-94
2023/08/01 12:46:23;;;;;;;4.07;0.80;;;18.70;99.90;;;;;;4724110;30;20078;-94
2023/08/01 12:48:59;;;;;;;3.35;1.08;;;18.70;99.90;;;;;;4754623;30;20055;-95
2023/08/01 12:51:37;;;;;;;3.47;0.65;;;18.70;99.90;;;;;;4740557;30;20071;-94
2023/08/01 12:54:03;;;;;;;2.20;0.75;;;18.70;99.90;;;;;;4723759;30;20483;-95
2023/08/01 12:57:24;;;;;;;;;;;;;;;;;;;;;
2023/08/01 13:00:16;;;;;;;4.18;1.40;;;18.70;99.90;;;;;;4758806;30;20113;-94